createdAt,value
2018-09-29T00:00:25.150Z,1024.01
2018-09-29T00:01:25.143Z,1024.06
2018-09-29T00:02:25.137Z,1024.03
2018-09-29T00:03:25.130Z,1024.03
2018-09-29T00:04:25.123Z,1024.09
2018-09-29T00:05:25.124Z,1024.05
2018-09-29T00:06:25.112Z,1024.07
2018-09-29T00:07:25.103Z,1024.10
2018-09-29T00:08:25.097Z,1024.07
2018-09-29T00:09:25.092Z,1024.08
2018-09-29T00:10:25.084Z,1024.06
2018-09-29T00:11:25.076Z,1024.07
2018-09-29T00:12:25.073Z,1024.06
2018-09-29T00:13:25.063Z,1024.09
2018-09-29T00:14:25.058Z,1024.06
2018-09-29T00:15:25.049Z,1024.05
2018-09-29T00:16:25.065Z,1024.06
2018-09-29T00:17:25.036Z,1024.08
2018-09-29T00:18:25.032Z,1024.02
2018-09-29T00:19:25.024Z,1024.04
2018-09-29T00:20:25.018Z,1024.01
2018-09-29T00:21:25.010Z,1024.06
2018-09-29T00:22:25.009Z,1024.04
2018-09-29T00:23:24.996Z,1024.01
2018-09-29T00:24:24.992Z,1024.05
2018-09-29T00:25:25.057Z,1024.04
2018-09-29T00:26:24.981Z,1024.07
2018-09-29T00:27:24.970Z,1024.06
2018-09-29T00:28:24.965Z,1024.05
2018-09-29T00:29:24.959Z,1024.04
2018-09-29T00:30:24.952Z,1024.03
2018-09-29T00:31:24.944Z,1024.05
2018-09-29T00:32:24.941Z,1024.04
2018-09-29T00:33:24.931Z,1024.01
2018-09-29T00:34:24.952Z,1023.98
2018-09-29T00:35:24.920Z,1023.99
2018-09-29T00:36:24.914Z,1024.01
2018-09-29T00:37:24.904Z,1024.01
2018-09-29T00:38:24.899Z,1024.04
2018-09-29T00:39:24.892Z,1024.02
2018-09-29T00:40:24.886Z,1024.06
2018-09-29T00:41:24.877Z,1024.02
2018-09-29T00:42:24.942Z,1024.02
2018-09-29T00:43:24.864Z,1024.01
2018-09-29T00:44:24.861Z,1024.03
2018-09-29T00:45:24.851Z,1024.01
2018-09-29T00:46:24.850Z,1023.99
2018-09-29T00:47:24.838Z,1024.03
2018-09-29T00:48:24.833Z,1024.01
2018-09-29T00:49:24.824Z,1024.01
2018-09-29T00:50:24.822Z,1024.01
2018-09-29T00:51:24.811Z,1024.05
2018-09-29T00:52:24.806Z,1024.01
2018-09-29T00:53:24.798Z,1024.05
2018-09-29T00:54:24.793Z,1024.05
2018-09-29T00:55:24.785Z,1024.04
2018-09-29T00:56:24.779Z,1024.06
2018-09-29T00:57:24.770Z,1024.02
2018-09-29T00:58:24.768Z,1024.02
2018-09-29T00:59:24.759Z,1024.03
2018-09-29T01:00:24.753Z,1024.04
2018-09-29T01:01:24.744Z,1024.04
2018-09-29T01:02:24.740Z,1024.03
2018-09-29T01:03:24.731Z,1023.99
2018-09-29T01:04:24.728Z,1023.96
2018-09-29T01:05:24.717Z,1023.97
2018-09-29T01:06:24.717Z,1023.95
2018-09-29T01:07:24.704Z,1023.92
2018-09-29T01:08:24.698Z,1023.93
2018-09-29T01:09:24.690Z,1023.94
2018-09-29T01:10:24.686Z,1023.93
2018-09-29T01:11:24.678Z,1023.95
2018-09-29T01:12:24.671Z,1023.95
2018-09-29T01:13:24.663Z,1023.94
2018-09-29T01:14:24.699Z,1023.95
2018-09-29T01:15:24.650Z,1023.94
2018-09-29T01:16:24.644Z,1023.93
2018-09-29T01:17:24.635Z,1023.92
2018-09-29T01:18:24.633Z,1023.91
2018-09-29T01:19:24.623Z,1023.88
2018-09-29T01:20:24.616Z,1023.91
2018-09-29T01:21:24.608Z,1023.94
2018-09-29T01:22:24.605Z,1023.93
2018-09-29T01:23:24.594Z,1023.97
2018-09-29T01:24:24.589Z,1024.01
2018-09-29T01:25:24.581Z,1024.01
2018-09-29T01:26:24.576Z,1024.02
2018-09-29T01:27:24.567Z,1023.98
2018-09-29T01:28:24.563Z,1023.99
2018-09-29T01:29:24.552Z,1024.02
2018-09-29T01:30:24.548Z,1024.03
2018-09-29T01:31:24.540Z,1024.05
2018-09-29T01:32:24.533Z,1024.03
2018-09-29T01:33:24.525Z,1024.01
2018-09-29T01:34:24.521Z,1024.01
2018-09-29T01:35:24.512Z,1024.01
2018-09-29T01:36:24.506Z,1024.03
2018-09-29T01:37:24.496Z,1024.00
2018-09-29T01:38:24.493Z,1024.00
2018-09-29T01:39:24.484Z,1023.99
2018-09-29T01:40:24.480Z,1023.98
2018-09-29T01:41:24.477Z,1023.97
2018-09-29T01:42:24.479Z,1024.00
2018-09-29T01:43:24.456Z,1023.99
2018-09-29T01:44:24.451Z,1023.96
2018-09-29T01:45:24.441Z,1023.97
2018-09-29T01:46:24.436Z,1023.98
2018-09-29T01:47:24.431Z,1023.94
2018-09-29T01:48:24.424Z,1024.00
2018-09-29T01:49:24.422Z,1024.01
2018-09-29T01:50:24.408Z,1023.98
2018-09-29T01:51:24.399Z,1024.00
2018-09-29T01:52:24.393Z,1024.01
2018-09-29T01:53:24.384Z,1023.99
2018-09-29T01:54:24.380Z,1023.99
2018-09-29T01:55:24.670Z,1023.95
2018-09-29T01:56:24.365Z,1023.96
2018-09-29T01:57:24.355Z,1023.95
2018-09-29T01:58:24.352Z,1023.99
2018-09-29T01:59:24.341Z,1023.97
2018-09-29T02:00:24.336Z,1023.97
2018-09-29T02:01:24.327Z,1023.96
2018-09-29T02:02:24.322Z,1023.96
2018-09-29T02:03:24.313Z,1023.94
2018-09-29T02:04:24.308Z,1023.97
2018-09-29T02:05:24.300Z,1023.98
2018-09-29T02:06:24.319Z,1023.99
2018-09-29T02:07:24.284Z,1024.01
2018-09-29T02:08:24.278Z,1024.01
2018-09-29T02:09:24.269Z,1024.00
2018-09-29T02:10:24.264Z,1024.00
2018-09-29T02:11:24.255Z,1023.94
2018-09-29T02:12:24.251Z,1023.94
2018-09-29T02:13:24.240Z,1023.95
2018-09-29T02:14:24.235Z,1023.97
2018-09-29T02:15:24.229Z,1023.93
2018-09-29T02:16:24.220Z,1023.96
2018-09-29T02:17:24.211Z,1023.95
2018-09-29T02:18:24.210Z,1023.95
2018-09-29T02:19:24.197Z,1023.93
2018-09-29T02:20:24.190Z,1023.94
2018-09-29T02:21:24.182Z,1023.93
2018-09-29T02:22:24.176Z,1023.92
2018-09-29T02:23:24.167Z,1023.91
2018-09-29T02:24:24.162Z,1023.92
2018-09-29T02:25:24.154Z,1023.93
2018-09-29T02:26:24.148Z,1023.92
2018-09-29T02:27:24.139Z,1023.94
2018-09-29T02:28:24.132Z,1023.92
2018-09-29T02:29:24.124Z,1023.94
2018-09-29T02:30:24.119Z,1023.92
2018-09-29T02:31:24.111Z,1023.90
2018-09-29T02:32:24.104Z,1023.89
2018-09-29T02:33:24.093Z,1023.98
2018-09-29T02:34:24.090Z,1024.00
2018-09-29T02:35:24.079Z,1023.91
2018-09-29T02:36:24.077Z,1023.92
2018-09-29T02:37:24.064Z,1023.90
2018-09-29T02:38:24.145Z,1023.90
2018-09-29T02:39:24.051Z,1023.91
2018-09-29T02:40:24.044Z,1023.94
2018-09-29T02:41:24.035Z,1023.88
2018-09-29T02:42:24.031Z,1023.92
2018-09-29T02:43:24.023Z,1023.90
2018-09-29T02:44:24.019Z,1023.89
2018-09-29T02:45:24.009Z,1023.90
2018-09-29T02:46:23.999Z,1023.87
2018-09-29T02:47:23.992Z,1023.90
2018-09-29T02:48:23.991Z,1023.86
2018-09-29T02:49:23.975Z,1023.86
2018-09-29T02:50:23.979Z,1023.88
2018-09-29T02:51:23.965Z,1023.87
2018-09-29T02:52:23.954Z,1023.89
2018-09-29T02:53:23.947Z,1023.88
2018-09-29T02:54:23.943Z,1023.88
2018-09-29T02:55:23.931Z,1023.92
2018-09-29T02:56:23.924Z,1023.86
2018-09-29T02:57:23.915Z,1023.87
2018-09-29T02:58:23.911Z,1023.89
2018-09-29T02:59:23.899Z,1023.86
2018-09-29T03:00:23.894Z,1023.85
2018-09-29T03:01:23.885Z,1023.83
2018-09-29T03:02:23.878Z,1023.86
2018-09-29T03:03:23.868Z,1023.82
2018-09-29T03:04:23.862Z,1023.84
2018-09-29T03:05:23.853Z,1023.79
2018-09-29T03:06:23.849Z,1023.82
2018-09-29T03:07:23.839Z,1023.82
2018-09-29T03:08:23.834Z,1023.81
2018-09-29T03:09:23.821Z,1023.84
2018-09-29T03:10:23.816Z,1023.81
2018-09-29T03:11:23.806Z,1023.78
2018-09-29T03:12:23.800Z,1023.77
2018-09-29T03:13:23.792Z,1023.77
2018-09-29T03:14:23.788Z,1023.78
2018-09-29T03:15:23.776Z,1023.80
2018-09-29T03:16:23.770Z,1023.79
2018-09-29T03:17:23.818Z,1023.80
2018-09-29T03:18:23.755Z,1023.79
2018-09-29T03:19:23.849Z,1023.82
2018-09-29T03:20:23.739Z,1023.82
2018-09-29T03:21:23.729Z,1023.81
2018-09-29T03:22:23.724Z,1023.81
2018-09-29T03:23:23.714Z,1023.81
2018-09-29T03:24:23.709Z,1023.81
2018-09-29T03:25:23.699Z,1023.81
2018-09-29T03:26:23.693Z,1023.80
2018-09-29T03:27:23.683Z,1023.78
2018-09-29T03:28:23.677Z,1023.77
2018-09-29T03:29:23.668Z,1023.73
2018-09-29T03:30:23.663Z,1023.77
2018-09-29T03:31:23.702Z,1023.76
2018-09-29T03:32:23.646Z,1023.75
2018-09-29T03:33:23.638Z,1023.75
2018-09-29T03:34:23.632Z,1023.69
2018-09-29T03:35:23.622Z,1023.71
2018-09-29T03:36:23.619Z,1023.74
2018-09-29T03:37:23.606Z,1023.73
2018-09-29T03:38:23.606Z,1023.73
2018-09-29T03:39:23.606Z,1023.77
2018-09-29T03:40:23.584Z,1023.76
2018-09-29T03:41:23.575Z,1023.77
2018-09-29T03:42:23.569Z,1023.79
2018-09-29T03:43:23.559Z,1023.77
2018-09-29T03:44:23.553Z,1023.78
2018-09-29T03:45:23.551Z,1023.77
2018-09-29T03:46:23.554Z,1023.75
2018-09-29T03:47:23.528Z,1023.76
2018-09-29T03:48:23.521Z,1023.78
2018-09-29T03:49:23.617Z,1023.76
2018-09-29T03:50:23.557Z,1023.76
2018-09-29T03:51:23.497Z,1023.74
2018-09-29T03:52:23.491Z,1023.72
2018-09-29T03:53:23.509Z,1023.69
2018-09-29T03:54:23.475Z,1023.70
2018-09-29T03:55:23.468Z,1023.71
2018-09-29T03:56:23.457Z,1023.71
2018-09-29T03:57:23.452Z,1023.72
2018-09-29T03:58:23.444Z,1023.73
2018-09-29T03:59:23.438Z,1023.73
2018-09-29T04:00:23.425Z,1023.73
2018-09-29T04:01:23.422Z,1023.74
2018-09-29T04:02:23.414Z,1023.75
2018-09-29T04:03:23.406Z,1023.73
2018-09-29T04:04:23.395Z,1023.75
2018-09-29T04:05:23.390Z,1023.73
2018-09-29T04:06:23.379Z,1023.75
2018-09-29T04:07:23.384Z,1023.74
2018-09-29T04:08:23.363Z,1023.76
2018-09-29T04:09:23.358Z,1023.77
2018-09-29T04:10:23.351Z,1023.72
2018-09-29T04:11:23.342Z,1023.75
2018-09-29T04:12:23.332Z,1023.74
2018-09-29T04:13:23.327Z,1023.73
2018-09-29T04:14:23.316Z,1023.77
2018-09-29T04:15:23.311Z,1023.76
2018-09-29T04:16:23.367Z,1023.78
2018-09-29T04:17:23.295Z,1023.77
2018-09-29T04:18:23.285Z,1023.77
2018-09-29T04:19:23.530Z,1023.81
2018-09-29T04:20:23.273Z,1023.84
2018-09-29T04:21:23.264Z,1023.85
2018-09-29T04:22:23.255Z,1023.85
2018-09-29T04:23:23.249Z,1023.83
2018-09-29T04:24:23.241Z,1023.83
2018-09-29T04:25:23.290Z,1023.85
2018-09-29T04:26:23.222Z,1023.79
2018-09-29T04:27:23.217Z,1023.83
2018-09-29T04:28:23.206Z,1023.82
2018-09-29T04:29:23.202Z,1023.82
2018-09-29T04:30:23.191Z,1023.80
2018-09-29T04:31:23.186Z,1023.82
2018-09-29T04:32:23.178Z,1023.87
2018-09-29T04:33:23.169Z,1023.86
2018-09-29T04:34:23.159Z,1023.85
2018-09-29T04:35:23.154Z,1023.89
2018-09-29T04:36:23.143Z,1023.88
2018-09-29T04:37:23.137Z,1023.89
2018-09-29T04:38:23.132Z,1023.81
2018-09-29T04:39:23.123Z,1023.85
2018-09-29T04:40:23.113Z,1023.85
2018-09-29T04:41:23.106Z,1023.86
2018-09-29T04:42:23.100Z,1023.89
2018-09-29T04:43:23.091Z,1023.86
2018-09-29T04:44:23.080Z,1023.92
2018-09-29T04:45:23.075Z,1023.91
2018-09-29T04:46:23.065Z,1023.94
2018-09-29T04:47:23.064Z,1023.91
2018-09-29T04:48:23.121Z,1023.96
2018-09-29T04:49:23.048Z,1023.95
2018-09-29T04:50:23.035Z,1023.97
2018-09-29T04:51:23.028Z,1023.94
2018-09-29T04:52:23.017Z,1023.96
2018-09-29T04:53:23.013Z,1023.96
2018-09-29T04:54:23.004Z,1023.96
2018-09-29T04:55:22.997Z,1023.98
2018-09-29T04:56:22.986Z,1024.00
2018-09-29T04:57:22.981Z,1023.99
2018-09-29T04:58:22.971Z,1023.96
2018-09-29T04:59:22.966Z,1023.95
2018-09-29T05:00:22.953Z,1023.93
2018-09-29T05:01:22.949Z,1023.89
2018-09-29T05:02:22.945Z,1023.90
2018-09-29T05:03:22.934Z,1023.95
2018-09-29T05:04:22.923Z,1023.93
2018-09-29T05:05:22.918Z,1023.95
2018-09-29T05:06:22.910Z,1023.94
2018-09-29T05:07:22.903Z,1023.93
2018-09-29T05:08:22.892Z,1023.95
2018-09-29T05:09:22.890Z,1023.92
2018-09-29T05:10:22.878Z,1023.90
2018-09-29T05:11:22.871Z,1023.90
2018-09-29T05:12:22.860Z,1023.88
2018-09-29T05:13:22.856Z,1023.85
2018-09-29T05:14:22.845Z,1023.90
2018-09-29T05:15:22.841Z,1023.90
2018-09-29T05:16:22.829Z,1023.89
2018-09-29T05:17:22.825Z,1023.86
2018-09-29T05:18:22.814Z,1023.87
2018-09-29T05:19:22.824Z,1023.82
2018-09-29T05:20:22.797Z,1023.85
2018-09-29T05:21:22.793Z,1023.86
2018-09-29T05:22:22.784Z,1023.85
2018-09-29T05:23:22.979Z,1023.83
2018-09-29T05:24:22.768Z,1023.85
2018-09-29T05:25:22.764Z,1023.84
2018-09-29T05:26:22.750Z,1023.83
2018-09-29T05:27:22.745Z,1023.77
2018-09-29T05:28:22.737Z,1023.76
2018-09-29T05:29:22.729Z,1023.82
2018-09-29T05:30:22.728Z,1023.85
2018-09-29T05:31:22.713Z,1023.87
2018-09-29T05:32:22.703Z,1023.92
2018-09-29T05:33:22.696Z,1023.94
2018-09-29T05:34:22.687Z,1023.92
2018-09-29T05:35:22.682Z,1023.92
2018-09-29T05:36:22.672Z,1023.99
2018-09-29T05:37:22.675Z,1023.98
2018-09-29T05:38:22.662Z,1023.99
2018-09-29T05:39:22.650Z,1023.97
2018-09-29T05:40:22.639Z,1023.97
2018-09-29T05:41:22.633Z,1023.97
2018-09-29T05:42:22.624Z,1023.95
2018-09-29T05:43:22.618Z,1023.94
2018-09-29T05:44:22.612Z,1023.96
2018-09-29T05:45:22.603Z,1024.01
2018-09-29T05:46:22.595Z,1024.04
2018-09-29T05:47:22.588Z,1024.02
2018-09-29T05:48:22.591Z,1024.03
2018-09-29T05:49:22.571Z,1024.04
2018-09-29T05:50:22.561Z,1024.08
2018-09-29T05:51:22.555Z,1024.06
2018-09-29T05:52:22.547Z,1024.06
2018-09-29T05:53:22.543Z,1024.12
2018-09-29T05:54:22.530Z,1024.11
2018-09-29T05:55:22.648Z,1024.08
2018-09-29T05:56:22.514Z,1024.10
2018-09-29T05:57:22.508Z,1024.09
2018-09-29T05:58:22.498Z,1024.11
2018-09-29T05:59:22.494Z,1024.09
2018-09-29T06:00:22.519Z,1024.14
2018-09-29T06:01:22.478Z,1024.09
2018-09-29T06:02:22.473Z,1024.13
2018-09-29T06:03:22.462Z,1024.12
2018-09-29T06:04:22.461Z,1024.11
2018-09-29T06:05:22.556Z,1024.08
2018-09-29T06:06:22.440Z,1024.12
2018-09-29T06:07:22.543Z,1024.14
2018-09-29T06:08:22.421Z,1024.14
2018-09-29T06:09:22.417Z,1024.15
2018-09-29T06:10:22.409Z,1024.13
2018-09-29T06:11:22.403Z,1024.07
2018-09-29T06:12:22.391Z,1024.04
2018-09-29T06:13:22.387Z,1024.05
2018-09-29T06:14:22.377Z,1024.05
2018-09-29T06:15:22.439Z,1024.05
2018-09-29T06:16:22.362Z,1024.07
2018-09-29T06:17:22.357Z,1024.02
2018-09-29T06:18:22.351Z,1024.02
2018-09-29T06:19:22.342Z,1024.05
2018-09-29T06:20:22.333Z,1024.05
2018-09-29T06:21:22.328Z,1024.02
2018-09-29T06:22:22.318Z,1024.00
2018-09-29T06:23:22.314Z,1023.98
2018-09-29T06:24:22.304Z,1023.98
2018-09-29T06:25:22.299Z,1023.98
2018-09-29T06:26:22.288Z,1024.01
2018-09-29T06:27:22.285Z,1024.00
2018-09-29T06:28:22.275Z,1024.00
2018-09-29T06:29:22.270Z,1023.97
2018-09-29T06:30:22.266Z,1023.97
2018-09-29T06:31:22.256Z,1023.93
2018-09-29T06:32:22.247Z,1024.01
2018-09-29T06:33:22.242Z,1024.02
2018-09-29T06:34:22.248Z,1024.05
2018-09-29T06:35:22.233Z,1024.02
2018-09-29T06:36:22.219Z,1024.08
2018-09-29T06:37:22.214Z,1024.11
2018-09-29T06:38:22.205Z,1024.07
2018-09-29T06:39:22.207Z,1024.11
2018-09-29T06:40:22.195Z,1024.10
2018-09-29T06:41:22.187Z,1024.12
2018-09-29T06:42:22.181Z,1024.07
2018-09-29T06:43:22.474Z,1024.11
2018-09-29T06:44:22.165Z,1024.09
2018-09-29T06:45:22.160Z,1024.10
2018-09-29T06:46:22.152Z,1024.12
2018-09-29T06:47:22.177Z,1024.11
2018-09-29T06:48:22.138Z,1024.10
2018-09-29T06:49:22.183Z,1024.10
2018-09-29T06:50:22.126Z,1024.07
2018-09-29T06:51:22.120Z,1024.10
2018-09-29T06:52:22.110Z,1024.10
2018-09-29T06:53:22.110Z,1024.10
2018-09-29T06:54:22.125Z,1024.13
2018-09-29T06:55:22.096Z,1024.25
2018-09-29T06:56:22.085Z,1024.27
2018-09-29T06:57:22.081Z,1024.23
2018-09-29T06:58:22.072Z,1024.23
2018-09-29T06:59:22.068Z,1024.23
2018-09-29T07:00:22.065Z,1024.22
2018-09-29T07:01:22.055Z,1024.23
2018-09-29T07:02:22.046Z,1024.26
2018-09-29T07:03:22.043Z,1024.26
2018-09-29T07:04:22.057Z,1024.26
2018-09-29T07:05:22.028Z,1024.31
2018-09-29T07:06:22.021Z,1024.27
2018-09-29T07:07:22.020Z,1024.26
2018-09-29T07:08:22.074Z,1024.27
2018-09-29T07:09:22.004Z,1024.28
2018-09-29T07:10:22.000Z,1024.29
2018-09-29T07:11:21.993Z,1024.26
2018-09-29T07:12:22.186Z,1024.26
2018-09-29T07:13:21.980Z,1024.28
2018-09-29T07:14:21.972Z,1024.32
2018-09-29T07:15:21.969Z,1024.32
2018-09-29T07:16:21.974Z,1024.35
2018-09-29T07:17:21.957Z,1024.33
2018-09-29T07:18:21.949Z,1024.29
2018-09-29T07:19:21.945Z,1024.29
2018-09-29T07:20:21.937Z,1024.29
2018-09-29T07:21:21.933Z,1024.29
2018-09-29T07:22:21.926Z,1024.32
2018-09-29T07:23:21.927Z,1024.37
2018-09-29T07:26:47.616Z,1024.35
2018-09-29T07:27:50.622Z,1024.25
2018-09-29T07:28:47.588Z,1024.28
2018-09-29T07:29:47.584Z,1024.30
2018-09-29T07:30:47.578Z,1024.28
2018-09-29T07:31:47.573Z,1024.25
2018-09-29T07:32:47.566Z,1024.25
2018-09-29T07:33:47.766Z,1024.24
2018-09-29T07:34:47.560Z,1024.29
2018-09-29T07:36:29.963Z,1024.26
2018-09-29T07:37:29.960Z,1024.19
2018-09-29T07:38:29.953Z,1024.18
2018-09-29T07:39:32.776Z,1024.15
2018-09-29T07:40:29.944Z,1024.20
2018-09-29T18:08:07.191Z,1018.00
2018-09-29T18:09:07.190Z,1017.98
2018-09-29T18:10:07.191Z,1017.98
2018-09-29T18:11:07.180Z,1017.97
2018-09-29T18:12:07.173Z,1017.94
2018-09-29T18:13:07.172Z,1017.92
2018-09-29T18:14:09.804Z,1017.90
2018-09-29T18:15:07.162Z,1017.90
2018-09-29T18:16:07.155Z,1017.94
2018-09-29T18:18:39.655Z,1017.99
2018-09-29T18:20:39.649Z,1017.98
2018-09-29T18:21:39.642Z,1018.01
2018-09-29T18:22:39.649Z,1017.98
2018-09-29T18:23:39.635Z,1017.96
2018-09-29T18:24:39.685Z,1017.95
2018-09-29T18:25:39.625Z,1017.99
2018-09-29T18:26:39.623Z,1017.94
2018-09-29T18:27:39.619Z,1017.96
2018-09-29T18:28:39.614Z,1018.00
2018-09-29T18:29:39.610Z,1018.00
2018-09-29T18:30:39.606Z,1018.02
2018-09-29T18:31:39.601Z,1018.00
2018-09-29T18:33:39.595Z,1017.98
2018-09-29T18:34:39.646Z,1018.01
2018-09-29T18:35:39.620Z,1017.99
2018-09-29T18:36:39.581Z,1018.04
2018-09-29T18:37:39.582Z,1018.00
2018-09-29T18:38:39.585Z,1018.02
2018-09-29T18:39:39.583Z,1018.02
2018-09-29T18:40:39.582Z,1018.04
2018-09-29T18:42:40.368Z,1018.03
2018-09-29T18:43:39.576Z,1018.04
2018-09-29T18:44:42.593Z,1018.07
2018-09-29T18:45:39.545Z,1018.10
2018-09-29T18:46:39.544Z,1018.10
2018-09-29T18:47:39.546Z,1018.09
2018-09-29T18:48:42.218Z,1018.10
2018-09-29T18:49:39.530Z,1018.09
2018-09-29T18:50:39.533Z,1018.10
2018-09-29T18:51:39.590Z,1018.09
2018-09-29T18:52:39.534Z,1018.04
2018-09-29T18:53:39.513Z,1018.04
2018-09-29T18:54:39.511Z,1018.04
2018-09-29T18:55:39.506Z,1018.06
2018-09-29T18:56:39.504Z,1018.03
2018-09-29T18:57:39.497Z,1018.05
2018-09-29T18:58:39.496Z,1018.04
2018-09-29T18:59:39.489Z,1018.07
2018-09-29T19:00:39.486Z,1018.04
2018-09-29T19:01:39.481Z,1018.02
2018-09-29T19:02:39.479Z,1018.00
2018-09-29T19:03:39.473Z,1018.00
2018-09-29T19:04:39.477Z,1017.98
2018-09-29T19:05:39.464Z,1018.01
2018-09-29T19:06:39.464Z,1017.98
2018-09-29T19:07:39.539Z,1017.96
2018-09-29T19:08:39.454Z,1017.98
2018-09-29T19:09:39.449Z,1017.95
2018-09-29T19:11:39.444Z,1017.95
2018-09-29T19:12:39.480Z,1017.93
2018-09-29T19:13:39.434Z,1017.97
2018-09-29T19:14:39.429Z,1017.96
2018-09-29T19:15:39.425Z,1017.96
2018-09-29T19:17:39.414Z,1017.96
2018-09-29T19:18:39.416Z,1017.93
2018-09-29T19:19:39.410Z,1017.90
2018-09-29T19:20:39.404Z,1017.89
2018-09-29T19:21:39.397Z,1017.90
2018-09-29T19:22:39.396Z,1017.90
2018-09-29T19:23:39.390Z,1017.87
2018-09-29T19:24:39.386Z,1017.89
2018-09-29T19:25:39.381Z,1017.85
2018-09-29T19:26:39.446Z,1017.84
2018-09-29T19:27:39.377Z,1017.80
2018-09-29T19:28:39.370Z,1017.79
2018-09-29T19:29:39.363Z,1017.73
2018-09-29T19:30:39.363Z,1017.70
2018-09-29T19:31:39.355Z,1017.74
2018-09-29T19:32:39.352Z,1017.75
2018-09-29T19:33:39.424Z,1017.74
2018-09-29T19:34:39.344Z,1017.76
2018-09-29T19:35:39.337Z,1017.73
2018-09-29T19:36:39.334Z,1017.68
2018-09-29T19:37:39.327Z,1017.67
2018-09-29T19:38:39.326Z,1017.66
2018-09-29T19:39:39.348Z,1017.68
2018-09-29T19:40:39.317Z,1017.65
2018-09-29T19:41:39.310Z,1017.64
2018-09-29T19:42:39.308Z,1017.66
2018-09-29T19:43:39.304Z,1017.65
2018-09-29T19:44:39.303Z,1017.67
2018-09-29T19:45:39.357Z,1017.63
2018-09-29T19:46:39.290Z,1017.63
2018-09-29T19:47:39.283Z,1017.61
2018-09-29T19:48:39.280Z,1017.60
2018-09-29T19:49:39.274Z,1017.57
2018-09-29T19:50:39.272Z,1017.59
2018-09-29T19:51:39.265Z,1017.58
2018-09-29T19:52:39.263Z,1017.56
2018-09-29T19:53:39.256Z,1017.56
2018-09-29T19:54:39.256Z,1017.55
2018-09-29T19:55:39.252Z,1017.56
2018-09-29T19:56:39.247Z,1017.54
2018-09-29T19:57:39.238Z,1017.56
2018-09-29T19:58:39.311Z,1017.52
2018-09-29T19:59:39.229Z,1017.55
2018-09-29T20:00:39.225Z,1017.56
2018-09-29T20:01:39.219Z,1017.53
2018-09-29T20:02:39.217Z,1017.57
2018-09-29T20:03:39.219Z,1017.57
2018-09-29T20:04:39.207Z,1017.52
2018-09-29T20:05:39.211Z,1017.56
2018-09-29T20:06:39.198Z,1017.56
2018-09-29T20:07:39.192Z,1017.54
2018-09-29T20:08:39.188Z,1017.52
2018-09-29T20:09:39.182Z,1017.51
2018-09-29T20:10:39.180Z,1017.49
2018-09-29T20:11:39.173Z,1017.49
2018-09-29T20:12:39.170Z,1017.48
2018-09-29T20:13:39.162Z,1017.49
2018-09-29T20:14:39.161Z,1017.50
2018-09-29T20:15:39.156Z,1017.52
2018-09-29T20:16:39.268Z,1017.50
2018-09-29T20:17:39.148Z,1017.52
2018-09-29T20:18:39.143Z,1017.52
2018-09-29T20:19:39.136Z,1017.50
2018-09-29T20:20:39.133Z,1017.52
2018-09-29T20:21:39.126Z,1017.50
2018-09-29T20:22:39.125Z,1017.53
2018-09-29T20:23:39.117Z,1017.53
2018-09-29T20:24:39.116Z,1017.53
2018-09-29T20:25:39.109Z,1017.51
2018-09-29T20:26:39.105Z,1017.52
2018-09-29T20:27:39.098Z,1017.52
2018-09-29T20:28:39.095Z,1017.53
2018-09-29T20:29:39.090Z,1017.51
2018-09-29T20:30:39.261Z,1017.46
2018-09-29T20:31:39.079Z,1017.44
2018-09-29T20:32:39.075Z,1017.46
2018-09-29T20:33:39.069Z,1017.49
2018-09-29T20:34:39.066Z,1017.48
2018-09-29T20:35:39.060Z,1017.49
2018-09-29T20:36:39.056Z,1017.45
2018-09-29T20:37:39.050Z,1017.43
2018-09-29T20:38:39.047Z,1017.42
2018-09-29T20:39:39.040Z,1017.44
2018-09-29T20:40:39.036Z,1017.41
2018-09-29T20:41:39.030Z,1017.40
2018-09-29T20:42:39.028Z,1017.39
2018-09-29T20:43:39.021Z,1017.38
2018-09-29T20:44:39.017Z,1017.34
2018-09-29T20:45:39.010Z,1017.32
2018-09-29T20:46:39.007Z,1017.32
2018-09-29T20:47:39.000Z,1017.30
2018-09-29T20:48:38.997Z,1017.27
2018-09-29T20:49:38.991Z,1017.27
2018-09-29T20:50:39.063Z,1017.29
2018-09-29T20:51:38.981Z,1017.28
2018-09-29T20:52:38.977Z,1017.25
2018-09-29T20:53:38.970Z,1017.23
2018-09-29T20:54:38.968Z,1017.20
2018-09-29T20:55:38.960Z,1017.21
2018-09-29T20:56:38.957Z,1017.21
2018-09-29T20:57:38.950Z,1017.19
2018-09-29T20:58:38.949Z,1017.21
2018-09-29T20:59:38.940Z,1017.18
2018-09-29T21:00:38.940Z,1017.16
2018-09-29T21:01:38.930Z,1017.15
2018-09-29T21:02:38.928Z,1017.11
2018-09-29T21:03:38.921Z,1017.06
2018-09-29T21:04:38.917Z,1017.08
2018-09-29T21:05:38.910Z,1017.06
2018-09-29T21:06:38.907Z,1017.05
2018-09-29T21:07:38.901Z,1017.05
2018-09-29T21:08:38.896Z,1016.99
2018-09-29T21:09:38.892Z,1016.97
2018-09-29T21:10:38.886Z,1016.95
2018-09-29T21:11:38.880Z,1016.93
2018-09-29T21:12:38.879Z,1016.93
2018-09-29T21:13:38.929Z,1016.97
2018-09-29T21:14:38.866Z,1016.94
2018-09-29T21:15:38.859Z,1016.93
2018-09-29T21:16:38.855Z,1016.92
2018-09-29T21:17:38.848Z,1016.97
2018-09-29T21:18:38.845Z,1016.93
2018-09-29T21:19:38.838Z,1016.93
2018-09-29T21:20:38.834Z,1016.94
2018-09-29T21:21:38.826Z,1016.92
2018-09-29T21:22:38.882Z,1016.93
2018-09-29T21:23:38.817Z,1016.94
2018-09-29T21:24:38.813Z,1016.88
2018-09-29T21:25:38.806Z,1016.89
2018-09-29T21:26:38.803Z,1016.88
2018-09-29T21:27:38.796Z,1016.85
2018-09-29T21:28:38.792Z,1016.83
2018-09-29T21:29:38.785Z,1016.82
2018-09-29T21:30:38.782Z,1016.79
2018-09-29T21:31:38.773Z,1016.78
2018-09-29T21:32:38.776Z,1016.75
2018-09-29T21:33:38.773Z,1016.73
2018-09-29T21:34:38.775Z,1016.75
2018-09-29T21:35:38.756Z,1016.77
2018-09-29T21:39:26.142Z,1016.67
2018-09-29T21:40:26.139Z,1016.67
2018-09-29T21:41:26.136Z,1016.65
2018-09-29T21:42:26.208Z,1016.62
2018-09-29T21:43:26.121Z,1016.63
2018-09-29T21:44:26.117Z,1016.64
2018-09-29T21:45:26.110Z,1016.61
2018-09-29T21:46:26.107Z,1016.61
2018-09-29T21:47:26.100Z,1016.59
2018-09-29T21:48:26.096Z,1016.54
2018-09-29T21:49:26.089Z,1016.54
2018-09-29T21:50:26.086Z,1016.50
2018-09-29T21:51:26.078Z,1016.51
2018-09-29T21:52:26.260Z,1016.51
2018-09-29T21:53:26.152Z,1016.49
2018-09-29T21:54:26.065Z,1016.47
2018-09-29T21:55:26.060Z,1016.49
2018-09-29T21:56:26.053Z,1016.45
2018-09-29T21:57:26.045Z,1016.42
2018-09-29T21:58:26.042Z,1016.44
2018-09-29T21:59:26.035Z,1016.42
2018-09-29T22:00:26.031Z,1016.43
2018-09-29T22:01:26.026Z,1016.42
2018-09-29T22:02:26.021Z,1016.41
2018-09-29T22:03:26.013Z,1016.39
2018-09-29T22:04:26.013Z,1016.40
2018-09-29T22:05:26.002Z,1016.33
2018-09-29T22:06:26.001Z,1016.31
2018-09-29T22:07:25.991Z,1016.32
2018-09-29T22:08:25.987Z,1016.34
2018-09-29T22:09:25.983Z,1016.34
2018-09-29T22:10:25.977Z,1016.33
2018-09-29T22:11:25.970Z,1016.29
2018-09-29T22:12:25.965Z,1016.31
2018-09-29T22:13:25.958Z,1016.35
2018-09-29T22:14:25.955Z,1016.32
2018-09-29T22:15:25.948Z,1016.28
2018-09-29T22:16:25.945Z,1016.33
2018-09-29T22:17:25.935Z,1016.31
2018-09-29T22:18:25.938Z,1016.32
2018-09-29T22:19:25.924Z,1016.30
2018-09-29T22:20:25.920Z,1016.29
2018-09-29T22:21:25.914Z,1016.30
2018-09-29T22:22:25.915Z,1016.28
2018-09-29T22:23:25.902Z,1016.25
2018-09-29T22:24:25.899Z,1016.24
2018-09-29T22:25:25.962Z,1016.21
2018-09-29T22:26:25.887Z,1016.20
2018-09-29T22:27:25.878Z,1016.22
2018-09-29T22:28:25.876Z,1016.19
2018-09-29T22:29:25.870Z,1016.22
2018-09-29T22:30:25.872Z,1016.27
2018-09-29T22:31:25.857Z,1016.25
2018-09-29T22:32:25.853Z,1016.25
2018-09-29T22:33:25.845Z,1016.25
2018-09-29T22:34:25.841Z,1016.22
2018-09-29T22:35:25.841Z,1016.19
2018-09-29T22:36:25.842Z,1016.21
2018-09-29T22:37:25.837Z,1016.20
2018-09-29T22:38:25.857Z,1016.17
2018-09-29T22:39:25.811Z,1016.13
2018-09-29T22:40:25.806Z,1016.10
2018-09-29T22:41:25.800Z,1016.07
2018-09-29T22:42:25.866Z,1016.07
2018-09-29T22:43:25.788Z,1016.05
2018-09-29T22:44:25.788Z,1016.04